MOL Modern — V7VS6 — position and weather

sailwx.info

Track history (hours):
 
Tides and Currents Weather Stations Pressure Air Temp Water Temp Dewpoint Dewpoint Depression Visibility Wind Speed Wind Dir Waves Ship Positions

MOL Modern

Last reported at 2016-Dec-06 23:30 UTC. Time now 2016-Dec-07 08:40 UTC.
Position N 31°59' W 080°24'.

Length 302 m; draft 12 m.

Type: Ship (hazmat cat A). MMSI: 538004203.

Date/timePositionNaut miles runAvg speedWind from/ knotsBaromVisibWave heightAir tempDewpointWater temp
2016-Dec-06 23:30N 31°59' W 080°24'0 0.0
2016-Dec-06 22:30N 31°59' W 080°24'0 0.0
2016-Dec-06 21:30N 31°59' W 080°24'0 0.0
2016-Dec-06 20:30N 31°59' W 080°24'29210.5
2016-Dec-05 16:33N 27°08' W 079°52'2322.6
2016-Dec-05 15:33N 26°45' W 079°52'2322.7
2016-Dec-05 14:33N 26°23' W 079°51'2222.6
2016-Dec-05 13:34N 26°01' W 079°56'1717.1
2016-Dec-05 12:33N 25°46' W 080°06'3 3.0
2016-Dec-05 11:33N 25°46' W 080°09'0 0.0
2016-Dec-05 10:33N 25°46' W 080°09'0 0.0
2016-Dec-05 09:33N 25°46' W 080°09'0 0.0
2016-Dec-05 08:33N 25°46' W 080°09'0 0.0
2016-Dec-05 07:33N 25°46' W 080°09'0 0.0
2016-Dec-05 06:33N 25°46' W 080°09'0 0.0
2016-Dec-05 05:24N 25°46' W 080°09'0 0.0
2016-Dec-05 04:30N 25°46' W 080°09'0 0.0
2016-Dec-05 03:27N 25°46' W 080°09'0 0.0
2016-Dec-05 02:33N 25°46' W 080°09'0 0.0
2016-Dec-05 01:33N 25°46' W 080°09'0 0.0
2016-Dec-05 00:30N 25°46' W 080°09'0 0.0
2016-Dec-04 23:33N 25°46' W 080°09'0 0.0
2016-Dec-04 22:33N 25°46' W 080°09'0 0.0
2016-Dec-04 21:33N 25°46' W 080°09'0 0.0
2016-Dec-04 20:33N 25°46' W 080°09'0 0.0
2016-Dec-04 19:33N 25°46' W 080°09'0 0.0
2016-Dec-04 18:33N 25°46' W 080°09'0 0.0
2016-Dec-04 17:33N 25°46' W 080°09'0 0.0
2016-Dec-04 16:33N 25°46' W 080°09'0 0.0
2016-Dec-04 15:33N 25°46' W 080°09'0 0.0
2016-Dec-04 14:33N 25°46' W 080°09'0 0.0
2016-Dec-04 13:12N 25°46' W 080°09'0 0.0
2016-Dec-04 12:27N 25°46' W 080°09'2 1.8
2016-Dec-04 11:33N 25°46' W 080°07'7 6.8
2016-Dec-04 10:33N 25°48' W 080°01'7 6.6
2016-Dec-04 09:33N 25°46' W 079°54'4 3.8
2016-Dec-04 08:33N 25°47' W 079°50'1817.8
2016-Dec-04 07:34N 25°32' W 079°39'  
2016-Dec-01 23:33N 09°26' W 079°54'4 3.6
2016-Dec-01 22:33N 09°22' W 079°53'0 0.0
2016-Dec-01 21:33N 09°22' W 079°53'0 0.0
2016-Dec-01 20:33N 09°22' W 079°53'0 0.0
2016-Dec-01 19:33N 09°22' W 079°53'0 0.0
2016-Dec-01 18:33N 09°22' W 079°53'0 0.0
2016-Dec-01 17:21N 09°22' W 079°53'0 0.0
2016-Dec-01 16:33N 09°22' W 079°53'0 0.0
2016-Dec-01 15:33N 09°22' W 079°53'0 0.0
2016-Dec-01 14:30N 09°22' W 079°53'0 0.0
2016-Dec-01 13:33N 09°22' W 079°53'0 0.0
2016-Dec-01 12:33N 09°22' W 079°53'0 0.0
2016-Dec-01 11:27N 09°22' W 079°53'0 0.0
2016-Dec-01 10:33N 09°22' W 079°53'0 0.0
2016-Dec-01 09:33N 09°22' W 079°53'0 0.0
2016-Dec-01 08:33N 09°22' W 079°53'0 0.0
2016-Dec-01 07:33N 09°22' W 079°53'0 0.0
2016-Dec-01 06:30N 09°22' W 079°53'0 0.0
2016-Dec-01 05:33N 09°22' W 079°53'0 0.0
2016-Dec-01 04:33N 09°22' W 079°53'0 0.0
2016-Dec-01 03:33N 09°22' W 079°53'1 0.6
2016-Dec-01 02:33N 09°22' W 079°54'5 4.7
2016-Dec-01 01:33N 09°27' W 079°52'1 0.3
2016-Nov-30 20:13N 09°27' W 079°51'0 0.2
2016-Nov-30 19:31N 09°27' W 079°51'0 0.1
2016-Nov-30 18:25N 09°27' W 079°51'0 0.0
2016-Nov-30 03:07N 09°27' W 079°51'0 0.1
2016-Nov-30 02:28N 09°27' W 079°51'0 0.0
2016-Nov-30 01:22N 09°27' W 079°51'0 0.0
2016-Nov-30 00:25N 09°27' W 079°51'0 0.0
2016-Nov-29 23:28N 09°27' W 079°51'0 0.0
2016-Nov-29 20:10N 09°27' W 079°51'2 3.4
2016-Nov-29 19:33N 09°26' W 079°53'8 8.2
2016-Nov-29 18:33N 09°19' W 079°55'2 2.4
2016-Nov-29 17:33N 09°16' W 079°55'0 0.5
2016-Nov-29 16:33N 09°16' W 079°55'  
Track history (hours):
 
Tides and Currents Weather Stations Pressure Air Temp Water Temp Dewpoint Dewpoint Depression Visibility Wind Speed Wind Dir Waves Ship Positions

MOL Modern

Last reported at 2016-Dec-06 23:30 UTC. Time now 2016-Dec-07 08:40 UTC.
Position N 31°59' W 080°24'.

Length 302 m; draft 12 m.

Type: Ship (hazmat cat A). MMSI: 538004203.

Date/timePositionNaut miles runAvg speedWind from/ knotsBaromVisibWave heightAir tempDewpointWater temp
2016-Dec-06 23:30N 31°59' W 080°24'0 0.0
2016-Dec-06 22:30N 31°59' W 080°24'0 0.0
2016-Dec-06 21:30N 31°59' W 080°24'0 0.0
2016-Dec-06 20:30N 31°59' W 080°24'29210.5
2016-Dec-05 16:33N 27°08' W 079°52'2322.6
2016-Dec-05 15:33N 26°45' W 079°52'2322.7
2016-Dec-05 14:33N 26°23' W 079°51'2222.6
2016-Dec-05 13:34N 26°01' W 079°56'1717.1
2016-Dec-05 12:33N 25°46' W 080°06'3 3.0
2016-Dec-05 11:33N 25°46' W 080°09'0 0.0
2016-Dec-05 10:33N 25°46' W 080°09'0 0.0
2016-Dec-05 09:33N 25°46' W 080°09'0 0.0
2016-Dec-05 08:33N 25°46' W 080°09'0 0.0
2016-Dec-05 07:33N 25°46' W 080°09'0 0.0
2016-Dec-05 06:33N 25°46' W 080°09'0 0.0
2016-Dec-05 05:24N 25°46' W 080°09'0 0.0
2016-Dec-05 04:30N 25°46' W 080°09'0 0.0
2016-Dec-05 03:27N 25°46' W 080°09'0 0.0
2016-Dec-05 02:33N 25°46' W 080°09'0 0.0
2016-Dec-05 01:33N 25°46' W 080°09'0 0.0
2016-Dec-05 00:30N 25°46' W 080°09'0 0.0
2016-Dec-04 23:33N 25°46' W 080°09'0 0.0
2016-Dec-04 22:33N 25°46' W 080°09'0 0.0
2016-Dec-04 21:33N 25°46' W 080°09'0 0.0
2016-Dec-04 20:33N 25°46' W 080°09'0 0.0
2016-Dec-04 19:33N 25°46' W 080°09'0 0.0
2016-Dec-04 18:33N 25°46' W 080°09'0 0.0
2016-Dec-04 17:33N 25°46' W 080°09'0 0.0
2016-Dec-04 16:33N 25°46' W 080°09'0 0.0
2016-Dec-04 15:33N 25°46' W 080°09'0 0.0
2016-Dec-04 14:33N 25°46' W 080°09'0 0.0
2016-Dec-04 13:12N 25°46' W 080°09'0 0.0
2016-Dec-04 12:27N 25°46' W 080°09'2 1.8
2016-Dec-04 11:33N 25°46' W 080°07'7 6.8
2016-Dec-04 10:33N 25°48' W 080°01'7 6.6
2016-Dec-04 09:33N 25°46' W 079°54'4 3.8
2016-Dec-04 08:33N 25°47' W 079°50'1817.8
2016-Dec-04 07:34N 25°32' W 079°39'  
2016-Dec-01 23:33N 09°26' W 079°54'4 3.6
2016-Dec-01 22:33N 09°22' W 079°53'0 0.0
2016-Dec-01 21:33N 09°22' W 079°53'0 0.0
2016-Dec-01 20:33N 09°22' W 079°53'0 0.0
2016-Dec-01 19:33N 09°22' W 079°53'0 0.0
2016-Dec-01 18:33N 09°22' W 079°53'0 0.0
2016-Dec-01 17:21N 09°22' W 079°53'0 0.0
2016-Dec-01 16:33N 09°22' W 079°53'0 0.0
2016-Dec-01 15:33N 09°22' W 079°53'0 0.0
2016-Dec-01 14:30N 09°22' W 079°53'0 0.0
2016-Dec-01 13:33N 09°22' W 079°53'0 0.0
2016-Dec-01 12:33N 09°22' W 079°53'0 0.0
2016-Dec-01 11:27N 09°22' W 079°53'0 0.0
2016-Dec-01 10:33N 09°22' W 079°53'0 0.0
2016-Dec-01 09:33N 09°22' W 079°53'0 0.0
2016-Dec-01 08:33N 09°22' W 079°53'0 0.0
2016-Dec-01 07:33N 09°22' W 079°53'0 0.0
2016-Dec-01 06:30N 09°22' W 079°53'0 0.0
2016-Dec-01 05:33N 09°22' W 079°53'0 0.0
2016-Dec-01 04:33N 09°22' W 079°53'0 0.0
2016-Dec-01 03:33N 09°22' W 079°53'1 0.6
2016-Dec-01 02:33N 09°22' W 079°54'5 4.7
2016-Dec-01 01:33N 09°27' W 079°52'1 0.3
2016-Nov-30 20:13N 09°27' W 079°51'0 0.2
2016-Nov-30 19:31N 09°27' W 079°51'0 0.1
2016-Nov-30 18:25N 09°27' W 079°51'0 0.0
2016-Nov-30 03:07N 09°27' W 079°51'0 0.1
2016-Nov-30 02:28N 09°27' W 079°51'0 0.0
2016-Nov-30 01:22N 09°27' W 079°51'0 0.0
2016-Nov-30 00:25N 09°27' W 079°51'0 0.0
2016-Nov-29 23:28N 09°27' W 079°51'0 0.0
2016-Nov-29 20:10N 09°27' W 079°51'2 3.4
2016-Nov-29 19:33N 09°26' W 079°53'8 8.2
2016-Nov-29 18:33N 09°19' W 079°55'2 2.4
2016-Nov-29 17:33N 09°16' W 079°55'0 0.5
2016-Nov-29 16:33N 09°16' W 079°55'  

Dump ship's entire track history